createdAt,value
2022-11-24T00:00:53.187Z,80.79
2022-11-24T00:03:19.980Z,80.92
2022-11-24T00:05:46.557Z,81.82
2022-11-24T00:08:13.232Z,80.96
2022-11-24T00:10:39.671Z,81.68
2022-11-24T00:13:06.165Z,81.91
2022-11-24T00:15:32.624Z,82.42
2022-11-24T00:17:59.073Z,81.96
2022-11-24T00:20:25.507Z,82.54
2022-11-24T00:22:51.958Z,82.14
2022-11-24T00:25:18.402Z,82.33
2022-11-24T00:27:44.818Z,82.61
2022-11-24T00:30:11.792Z,82.45
2022-11-24T00:32:38.329Z,82.72
2022-11-24T00:35:05.309Z,82.57
2022-11-24T00:37:31.784Z,82.05
2022-11-24T00:39:58.204Z,82.24
2022-11-24T00:42:24.634Z,81.75
2022-11-24T00:44:51.098Z,81.60
2022-11-24T00:47:17.584Z,81.20
2022-11-24T00:49:44.081Z,81.23
2022-11-24T00:52:10.504Z,81.26
2022-11-24T00:54:36.953Z,81.81
2022-11-24T00:57:03.382Z,81.58
2022-11-24T00:59:29.830Z,81.05
2022-11-24T01:01:56.312Z,81.17
2022-11-24T01:04:22.830Z,80.53
2022-11-24T01:06:49.299Z,81.01
2022-11-24T01:09:15.729Z,81.07
2022-11-24T01:12:00.510Z,80.54
2022-11-24T01:14:27.737Z,80.79
2022-11-24T01:16:54.830Z,80.64
2022-11-24T01:19:21.366Z,81.07
2022-11-24T01:21:47.986Z,80.87
2022-11-24T01:24:15.470Z,81.15
2022-11-24T01:26:42.138Z,81.07
2022-11-24T01:29:11.044Z,81.25
2022-11-24T01:31:37.545Z,81.00
2022-11-24T01:34:04.083Z,81.27
2022-11-24T01:36:30.559Z,81.20
2022-11-24T01:38:56.969Z,81.03
2022-11-24T01:41:25.489Z,81.17
2022-11-24T01:43:53.469Z,80.95
2022-11-24T01:46:24.589Z,80.78
2022-11-24T01:49:18.996Z,80.82
2022-11-24T01:52:08.890Z,80.95
2022-11-24T01:54:45.564Z,80.60
2022-11-24T01:57:24.057Z,80.83
2022-11-24T01:59:55.916Z,80.87
2022-11-24T02:02:28.284Z,81.01
2022-11-24T02:04:57.763Z,80.88
2022-11-24T02:07:25.086Z,80.92
2022-11-24T02:09:55.737Z,80.89
2022-11-24T02:12:24.511Z,81.04
2022-11-24T02:14:52.368Z,80.62
2022-11-24T02:17:18.882Z,80.60
2022-11-24T02:19:56.716Z,80.54
2022-11-24T02:22:52.714Z,80.81
2022-11-24T02:25:44.960Z,80.85
2022-11-24T02:28:16.307Z,80.53
2022-11-24T02:30:43.127Z,80.75
2022-11-24T02:33:11.213Z,80.91
2022-11-24T02:39:43.722Z,80.96
2022-11-24T02:42:13.748Z,80.88
2022-11-24T02:44:44.086Z,80.84
2022-11-24T02:47:12.771Z,80.78
2022-11-24T02:49:39.618Z,81.30
2022-11-24T02:52:06.230Z,81.42
2022-11-24T02:54:33.027Z,81.47
2022-11-24T02:56:59.832Z,81.43
2022-11-24T02:59:26.439Z,81.36
2022-11-24T03:01:52.882Z,81.58
2022-11-24T03:04:19.329Z,80.90
2022-11-24T03:06:45.773Z,81.58
2022-11-24T03:09:12.204Z,81.36
2022-11-24T03:11:39.205Z,81.21
2022-11-24T03:14:06.239Z,81.23
2022-11-24T03:16:33.343Z,80.79
2022-11-24T03:19:00.402Z,80.70
2022-11-24T03:21:27.486Z,80.46
2022-11-24T03:23:54.322Z,80.32
2022-11-24T03:26:22.592Z,80.06
2022-11-24T03:28:49.053Z,80.00
2022-11-24T03:31:15.626Z,80.10
2022-11-24T03:33:42.402Z,79.83
2022-11-24T03:36:09.290Z,79.94
2022-11-24T03:38:36.049Z,80.31
2022-11-24T03:41:02.497Z,80.05
2022-11-24T03:43:28.960Z,80.01
2022-11-24T03:45:55.398Z,79.38
2022-11-24T03:48:22.129Z,79.22
2022-11-24T03:50:57.349Z,79.47
2022-11-24T03:53:25.277Z,79.51
2022-11-24T03:55:52.382Z,79.36
2022-11-24T03:58:19.507Z,79.35
2022-11-24T04:00:48.718Z,79.11
2022-11-24T04:03:15.785Z,79.24
2022-11-24T04:05:42.268Z,79.11
2022-11-24T04:08:09.268Z,78.93
2022-11-24T04:10:37.747Z,78.61
2022-11-24T04:13:10.479Z,78.57
2022-11-24T04:15:40.336Z,78.01
2022-11-24T04:18:07.747Z,78.26
2022-11-24T04:20:34.617Z,78.07
2022-11-24T04:23:01.116Z,77.91
2022-11-24T04:25:27.752Z,77.75
2022-11-24T04:27:55.368Z,77.51
2022-11-24T04:30:23.826Z,78.01
2022-11-24T04:32:50.785Z,77.17
2022-11-24T04:35:17.555Z,77.46
2022-11-24T04:37:44.009Z,77.37
2022-11-24T04:40:11.150Z,77.02
2022-11-24T04:42:37.946Z,77.33
2022-11-24T04:45:05.980Z,77.45
2022-11-24T04:47:32.984Z,77.43
2022-11-24T04:49:59.542Z,78.18
2022-11-24T04:52:26.441Z,78.76
2022-11-24T04:54:52.974Z,79.30
2022-11-24T04:57:22.072Z,79.46
2022-11-24T04:59:49.706Z,79.47
2022-11-24T05:02:16.202Z,79.73
2022-11-24T05:04:42.902Z,79.86
2022-11-24T05:07:17.992Z,79.45
2022-11-24T05:10:05.075Z,79.09
2022-11-24T05:12:31.732Z,79.22
2022-11-24T05:14:59.490Z,79.20
2022-11-24T05:17:34.876Z,78.78
2022-11-24T05:20:01.686Z,78.91
2022-11-24T05:22:29.374Z,78.36
2022-11-24T05:24:55.847Z,78.64
2022-11-24T05:27:22.934Z,78.76
2022-11-24T05:29:49.806Z,78.84
2022-11-24T05:32:16.392Z,79.41
2022-11-24T05:34:43.229Z,79.01
2022-11-24T05:37:09.637Z,79.27
2022-11-24T05:39:36.958Z,79.15
2022-11-24T05:42:25.604Z,79.62
2022-11-24T05:44:53.276Z,79.93
2022-11-24T05:47:20.586Z,79.93
2022-11-24T05:49:47.356Z,80.29
2022-11-24T05:52:14.100Z,80.35
2022-11-24T05:54:40.585Z,79.95
2022-11-24T05:57:07.407Z,80.14
2022-11-24T05:59:35.292Z,79.58
2022-11-24T06:02:01.984Z,79.12
2022-11-24T06:04:28.630Z,79.63
2022-11-24T06:06:55.073Z,79.51
2022-11-24T06:09:21.508Z,79.45
2022-11-24T06:11:48.885Z,79.14
2022-11-24T06:14:15.314Z,79.70
2022-11-24T06:16:41.829Z,79.73
2022-11-24T06:19:09.964Z,79.44
2022-11-24T06:21:36.429Z,79.06
2022-11-24T06:24:02.874Z,79.52
2022-11-24T06:26:29.307Z,79.08
2022-11-24T06:28:55.811Z,78.88
2022-11-24T06:31:22.485Z,77.66
2022-11-24T06:33:49.075Z,77.19
2022-11-24T06:36:16.115Z,77.76
2022-11-24T06:38:42.642Z,77.95
2022-11-24T06:41:14.134Z,78.19
2022-11-24T06:43:40.802Z,78.99
2022-11-24T06:46:08.020Z,78.89
2022-11-24T06:48:34.535Z,79.59
2022-11-24T06:51:02.908Z,79.50
2022-11-24T06:53:37.592Z,79.99
2022-11-24T06:56:16.144Z,80.45
2022-11-24T06:58:48.602Z,80.31
2022-11-24T07:01:28.805Z,80.14
2022-11-24T07:03:56.822Z,79.91
2022-11-24T07:06:24.847Z,79.90
2022-11-24T07:08:51.838Z,80.62
2022-11-24T07:11:21.439Z,80.47
2022-11-24T07:13:48.521Z,81.10
2022-11-24T07:16:20.660Z,81.31
2022-11-24T07:18:49.044Z,80.57
2022-11-24T07:21:16.253Z,80.61
2022-11-24T07:23:43.219Z,79.98
2022-11-24T07:26:10.683Z,80.34
2022-11-24T07:28:37.762Z,79.95
2022-11-24T07:31:19.025Z,80.43
2022-11-24T07:33:53.539Z,80.28
2022-11-24T07:36:20.587Z,80.17
2022-11-24T07:38:47.470Z,80.47
2022-11-24T07:41:15.172Z,80.29
2022-11-24T07:43:41.672Z,80.40
2022-11-24T07:46:12.503Z,80.73
2022-11-24T07:48:39.145Z,80.71
2022-11-24T07:51:06.125Z,80.75
2022-11-24T07:53:33.564Z,80.33
2022-11-24T07:56:01.700Z,80.42
2022-11-24T07:58:32.601Z,80.74
2022-11-24T08:00:59.779Z,80.79
2022-11-24T08:03:26.394Z,80.75
2022-11-24T08:06:23.132Z,80.57
2022-11-24T08:08:47.086Z,80.93
2022-11-24T08:11:15.938Z,81.40
2022-11-24T08:13:43.182Z,80.80
2022-11-24T08:16:12.546Z,80.60
2022-11-24T08:18:39.590Z,80.35
2022-11-24T08:21:07.111Z,80.79
2022-11-24T08:23:34.125Z,80.48
2022-11-24T08:26:08.842Z,79.92
2022-11-24T08:28:36.542Z,79.97
2022-11-24T08:31:08.283Z,79.18
2022-11-24T08:33:34.854Z,79.05
2022-11-24T08:36:09.894Z,79.27
2022-11-24T08:38:36.699Z,77.64
2022-11-24T08:41:04.825Z,77.63
2022-11-24T08:43:31.724Z,78.53
2022-11-24T08:46:06.878Z,78.11
2022-11-24T08:48:33.879Z,77.91
2022-11-24T08:51:07.423Z,77.32
2022-11-24T08:53:33.850Z,77.51
2022-11-24T08:56:01.029Z,77.18
2022-11-24T08:58:29.442Z,77.01
2022-11-24T09:00:56.022Z,77.39
2022-11-24T09:03:22.512Z,76.76
2022-11-24T09:05:52.945Z,77.60
2022-11-24T09:08:19.574Z,77.49
2022-11-24T09:10:46.648Z,77.01
2022-11-24T09:13:13.080Z,77.06
2022-11-24T09:15:39.479Z,76.98
2022-11-24T09:18:05.978Z,76.74
2022-11-24T09:20:32.416Z,75.52
2022-11-24T09:22:58.850Z,75.09
2022-11-24T09:25:25.294Z,74.01
2022-11-24T09:27:51.789Z,73.75
2022-11-24T09:30:18.296Z,74.77
2022-11-24T09:32:44.706Z,74.00
2022-11-24T09:35:11.150Z,75.05
2022-11-24T09:37:37.590Z,73.77
2022-11-24T09:40:04.467Z,73.80
2022-11-24T09:43:09.109Z,73.42
2022-11-24T09:48:38.897Z,72.78
2022-11-24T09:51:09.383Z,73.30
2022-11-24T09:54:03.242Z,72.24
2022-11-24T09:56:34.474Z,72.24
2022-11-24T09:59:06.353Z,72.26
2022-11-24T10:01:37.011Z,72.08
2022-11-24T10:04:12.265Z,71.75
2022-11-24T10:07:15.943Z,70.73
2022-11-24T10:10:03.215Z,72.10
2022-11-24T10:12:49.865Z,71.28
2022-11-24T10:15:44.931Z,71.56
2022-11-24T10:18:18.425Z,70.85
2022-11-24T10:21:07.669Z,70.14
2022-11-24T10:23:59.732Z,70.79
2022-11-24T10:26:39.579Z,70.43
2022-11-24T10:29:28.559Z,69.76
2022-11-24T10:31:56.329Z,68.37
2022-11-24T10:34:38.027Z,67.84
2022-11-24T10:37:16.984Z,67.24
2022-11-24T10:40:26.888Z,68.08
2022-11-24T10:42:58.531Z,68.87
2022-11-24T10:45:27.587Z,69.18
2022-11-24T10:47:54.108Z,68.53
2022-11-24T10:50:23.476Z,68.78
2022-11-24T10:53:08.405Z,68.81
2022-11-24T10:55:56.695Z,68.60
2022-11-24T10:58:24.226Z,67.77
2022-11-24T11:00:50.694Z,67.47
2022-11-24T11:03:20.911Z,66.99
2022-11-24T11:05:51.755Z,67.13
2022-11-24T11:08:29.469Z,66.33
2022-11-24T11:11:17.685Z,64.55
2022-11-24T11:14:03.052Z,65.15
2022-11-24T11:16:55.548Z,65.57
2022-11-24T11:20:00.089Z,64.90
2022-11-24T11:22:31.938Z,64.69
2022-11-24T11:25:21.645Z,63.39
2022-11-24T11:27:48.768Z,64.37
2022-11-24T11:36:11.587Z,60.13
2022-11-24T11:38:39.584Z,61.62
2022-11-24T11:41:13.602Z,61.44
2022-11-24T11:43:41.136Z,61.64
2022-11-24T11:46:18.017Z,62.39
2022-11-24T11:48:46.689Z,61.98
2022-11-24T11:51:27.922Z,59.33
2022-11-24T11:54:03.674Z,60.33
2022-11-24T11:56:34.893Z,59.92
2022-11-24T11:59:21.450Z,60.36
2022-11-24T12:01:58.517Z,58.96
2022-11-24T12:04:53.837Z,58.57
2022-11-24T12:07:29.355Z,58.82
2022-11-24T12:10:10.050Z,57.95
2022-11-24T12:12:45.147Z,58.00
2022-11-24T12:15:32.402Z,58.37
2022-11-24T12:21:52.852Z,58.11
2022-11-24T12:24:28.519Z,57.95
2022-11-24T12:27:22.589Z,57.85
2022-11-24T12:30:13.295Z,58.02
2022-11-24T12:32:58.226Z,57.42
2022-11-24T12:35:44.577Z,57.70
2022-11-24T12:38:41.003Z,56.13
2022-11-24T12:41:45.543Z,56.76
2022-11-24T12:44:41.879Z,57.07
2022-11-24T12:47:17.742Z,56.01
2022-11-24T12:49:53.953Z,57.24
2022-11-24T12:52:28.317Z,57.55
2022-11-24T12:54:55.417Z,54.79
2022-11-24T12:57:34.928Z,56.03
2022-11-24T13:00:13.109Z,56.64
2022-11-24T13:03:05.500Z,55.98
2022-11-24T13:05:43.393Z,56.78
2022-11-24T13:08:10.035Z,57.15
2022-11-24T13:10:56.213Z,57.71
2022-11-24T13:13:27.868Z,58.00
2022-11-24T13:16:20.630Z,57.71
2022-11-24T13:18:44.167Z,58.45
2022-11-24T13:21:50.885Z,56.09
2022-11-24T13:24:18.054Z,57.36
2022-11-24T13:26:50.490Z,58.22
2022-11-24T13:29:39.496Z,58.63
2022-11-24T13:32:05.883Z,57.54
2022-11-24T13:34:42.678Z,57.91
2022-11-24T13:37:34.738Z,56.79
2022-11-24T13:40:22.447Z,54.35
2022-11-24T13:43:02.501Z,53.73
2022-11-24T13:45:45.112Z,51.97
2022-11-24T13:48:20.962Z,52.17
2022-11-24T13:50:51.362Z,52.44
2022-11-24T13:53:42.638Z,52.50
2022-11-24T13:56:23.788Z,53.43
2022-11-24T13:58:57.685Z,53.13
2022-11-24T14:01:25.664Z,53.22
2022-11-24T14:04:29.173Z,51.69
2022-11-24T14:07:01.098Z,50.89
2022-11-24T14:09:42.452Z,52.53
2022-11-24T14:12:20.502Z,50.73
2022-11-24T14:14:49.829Z,50.48
2022-11-24T14:17:17.746Z,49.47
2022-11-24T14:19:47.138Z,49.93
2022-11-24T14:22:22.672Z,52.35
2022-11-24T14:24:55.015Z,53.51
2022-11-24T14:27:36.681Z,55.42
2022-11-24T14:30:15.413Z,56.68
2022-11-24T14:32:59.898Z,56.81
2022-11-24T14:35:31.810Z,58.32
2022-11-24T14:37:59.860Z,58.40
2022-11-24T14:40:46.457Z,58.80
2022-11-24T14:43:33.612Z,59.18
2022-11-24T14:46:08.001Z,59.42
2022-11-24T14:48:40.319Z,59.41
2022-11-24T14:51:18.017Z,60.15
2022-11-24T14:53:46.792Z,60.21
2022-11-24T14:56:34.465Z,61.04
2022-11-24T14:59:01.202Z,60.72
2022-11-24T15:01:30.024Z,61.66
2022-11-24T15:07:12.252Z,65.30
2022-11-24T15:09:47.611Z,66.02
2022-11-24T15:12:37.645Z,66.99
2022-11-24T15:15:15.811Z,67.49
2022-11-24T15:17:52.296Z,67.43
2022-11-24T15:20:30.176Z,67.94
2022-11-24T15:23:25.660Z,68.51
2022-11-24T15:25:54.241Z,69.03
2022-11-24T15:28:25.641Z,68.85
2022-11-24T15:31:12.897Z,69.32
2022-11-24T15:33:40.753Z,69.83
2022-11-24T15:36:07.626Z,69.69
2022-11-24T15:38:34.039Z,69.36
2022-11-24T15:41:01.657Z,69.14
2022-11-24T15:43:34.520Z,69.56
2022-11-24T15:46:02.582Z,69.91
2022-11-24T15:48:29.291Z,70.09
2022-11-24T15:50:57.312Z,70.86
2022-11-24T15:53:30.174Z,70.71
2022-11-24T15:55:57.623Z,70.93
2022-11-24T15:58:24.432Z,71.01
2022-11-24T16:00:53.452Z,70.51
2022-11-24T16:06:15.077Z,70.13
2022-11-24T16:08:44.957Z,70.34
2022-11-24T16:11:11.531Z,70.47
2022-11-24T16:13:38.100Z,69.37
2022-11-24T16:16:04.905Z,70.04
2022-11-24T16:18:35.382Z,70.82
2022-11-24T16:21:01.891Z,69.69
2022-11-24T16:23:28.353Z,70.31
2022-11-24T16:25:54.818Z,70.79
2022-11-24T16:28:21.369Z,71.33
2022-11-24T16:30:49.671Z,71.54
2022-11-24T16:33:16.786Z,70.10
2022-11-24T16:35:43.324Z,69.83
2022-11-24T16:38:17.548Z,70.41
2022-11-24T16:40:44.186Z,70.50
2022-11-24T16:43:10.820Z,70.94
2022-11-24T16:45:40.817Z,71.33
2022-11-24T16:48:10.267Z,71.30
2022-11-24T16:50:37.753Z,71.54
2022-11-24T16:53:04.282Z,71.47
2022-11-24T16:55:30.736Z,71.77
2022-11-24T16:57:57.237Z,71.69
2022-11-24T17:00:23.700Z,71.59
2022-11-24T17:02:50.256Z,71.62
2022-11-24T17:05:16.931Z,72.44
2022-11-24T17:07:43.395Z,72.08
2022-11-24T17:10:10.183Z,71.35
2022-11-24T17:12:37.549Z,70.88
2022-11-24T17:18:16.673Z,71.26
2022-11-24T17:20:38.388Z,71.65
2022-11-24T17:23:04.827Z,71.76
2022-11-24T17:25:32.379Z,72.58
2022-11-24T17:27:58.806Z,73.08
2022-11-24T17:30:25.273Z,70.56
2022-11-24T17:32:56.623Z,70.94
2022-11-24T17:35:23.575Z,71.53
2022-11-24T17:37:50.041Z,72.42
2022-11-24T17:40:34.308Z,72.47
2022-11-24T17:43:01.226Z,71.29
2022-11-24T17:45:28.784Z,71.89
2022-11-24T17:47:56.143Z,72.26
2022-11-24T17:50:26.033Z,72.68
2022-11-24T17:52:53.736Z,73.06
2022-11-24T17:55:20.271Z,73.09
2022-11-24T17:57:46.722Z,72.99
2022-11-24T18:00:13.931Z,72.38
2022-11-24T18:02:40.441Z,72.38
2022-11-24T18:05:07.396Z,72.38
2022-11-24T18:07:36.440Z,72.78
2022-11-24T18:10:03.297Z,72.61
2022-11-24T18:12:29.741Z,73.39
2022-11-24T18:14:56.269Z,73.22
2022-11-24T18:17:22.749Z,72.99
2022-11-24T18:19:49.218Z,73.49
2022-11-24T18:22:15.767Z,73.02
2022-11-24T18:24:42.243Z,72.44
2022-11-24T18:27:08.711Z,72.95
2022-11-24T18:29:35.174Z,73.31
2022-11-24T18:32:02.225Z,73.54
2022-11-24T18:34:28.742Z,73.34
2022-11-24T18:36:55.265Z,73.20
2022-11-24T18:39:21.808Z,73.65
2022-11-24T18:41:48.429Z,74.06
2022-11-24T18:44:14.929Z,74.13
2022-11-24T18:46:41.398Z,74.32
2022-11-24T18:49:07.913Z,74.92
2022-11-24T18:51:34.657Z,75.05
2022-11-24T18:54:02.922Z,75.59
2022-11-24T18:56:29.452Z,75.00
2022-11-24T18:58:56.694Z,74.24
2022-11-24T19:01:25.627Z,75.19
2022-11-24T19:03:54.391Z,74.95
2022-11-24T19:06:41.168Z,74.02
2022-11-24T19:09:20.399Z,73.85
2022-11-24T19:11:47.469Z,74.74
2022-11-24T19:14:16.358Z,76.03
2022-11-24T19:16:43.834Z,76.67
2022-11-24T19:19:12.266Z,77.35
2022-11-24T19:21:40.245Z,76.80
2022-11-24T19:24:10.065Z,76.38
2022-11-24T19:26:37.188Z,75.50
2022-11-24T19:29:04.500Z,74.96
2022-11-24T19:31:31.449Z,74.77
2022-11-24T19:33:59.561Z,74.88
2022-11-24T19:36:26.245Z,75.13
2022-11-24T19:38:57.189Z,75.05
2022-11-24T19:41:28.863Z,75.58
2022-11-24T19:43:55.400Z,76.26
2022-11-24T19:46:26.093Z,76.68
2022-11-24T19:48:57.250Z,77.18
2022-11-24T19:51:31.170Z,77.41
2022-11-24T19:53:58.695Z,76.72
2022-11-24T19:56:27.276Z,77.02
2022-11-24T19:58:55.056Z,77.18
2022-11-24T20:01:27.218Z,77.74
2022-11-24T20:03:58.586Z,76.61
2022-11-24T20:06:26.391Z,75.79
2022-11-24T20:08:53.042Z,75.62
2022-11-24T20:11:21.505Z,76.19
2022-11-24T20:13:49.809Z,75.42
2022-11-24T20:16:26.303Z,74.67
2022-11-24T20:18:54.989Z,74.82
2022-11-24T20:21:24.039Z,75.08
2022-11-24T20:24:18.492Z,74.55
2022-11-24T20:26:50.919Z,74.75
2022-11-24T20:29:17.724Z,75.33
2022-11-24T20:31:49.905Z,73.76
2022-11-24T20:34:17.204Z,73.57
2022-11-24T20:36:45.566Z,74.10
2022-11-24T20:39:26.141Z,74.45
2022-11-24T20:41:54.258Z,74.93
2022-11-24T20:44:22.081Z,73.52
2022-11-24T20:46:48.983Z,74.34
2022-11-24T20:49:18.211Z,74.74
2022-11-24T20:51:47.668Z,74.73
2022-11-24T20:54:16.578Z,74.29
2022-11-24T20:56:46.263Z,75.07
2022-11-24T20:59:21.493Z,74.93
2022-11-24T21:01:50.050Z,74.18
2022-11-24T21:04:19.554Z,74.28
2022-11-24T21:06:46.715Z,74.19
2022-11-24T21:09:13.220Z,74.59
2022-11-24T21:11:39.775Z,74.83
2022-11-24T21:14:07.793Z,74.00
2022-11-24T21:16:37.280Z,74.79
2022-11-24T21:19:06.984Z,75.14
2022-11-24T21:21:35.620Z,76.01
2022-11-24T21:24:09.566Z,75.95
2022-11-24T21:26:37.277Z,75.94
2022-11-24T21:29:04.183Z,75.69
2022-11-24T21:31:31.061Z,76.98
2022-11-24T21:33:57.554Z,76.53
2022-11-24T21:36:26.280Z,76.27
2022-11-24T21:38:55.327Z,75.86
2022-11-24T21:41:23.202Z,75.36
2022-11-24T21:43:50.230Z,75.31
2022-11-24T21:46:16.971Z,75.03
2022-11-24T21:48:43.747Z,75.77
2022-11-24T21:51:13.612Z,75.66
2022-11-24T21:53:41.095Z,76.05
2022-11-24T21:56:12.738Z,76.48
2022-11-24T21:58:45.602Z,76.78
2022-11-24T22:01:12.623Z,76.75
2022-11-24T22:03:39.104Z,77.08
2022-11-24T22:06:06.122Z,78.10
2022-11-24T22:08:32.795Z,78.20
2022-11-24T22:11:11.595Z,77.14
2022-11-24T22:13:38.520Z,76.12
2022-11-24T22:16:07.723Z,76.18
2022-11-24T22:18:38.856Z,76.73
2022-11-24T22:21:06.939Z,77.40
2022-11-24T22:23:35.114Z,77.22
2022-11-24T22:26:13.798Z,77.89
2022-11-24T22:28:41.067Z,76.88
2022-11-24T22:31:10.194Z,76.16
2022-11-24T22:33:36.668Z,76.89
2022-11-24T22:36:03.937Z,77.17
2022-11-24T22:38:32.832Z,78.19
2022-11-24T22:41:07.006Z,78.42
2022-11-24T22:43:35.230Z,78.43
2022-11-24T22:46:05.292Z,78.01
2022-11-24T22:48:32.387Z,78.43
2022-11-24T22:51:07.184Z,78.61
2022-11-24T22:53:34.060Z,79.22
2022-11-24T22:56:02.742Z,79.85
2022-11-24T22:58:30.785Z,79.93
2022-11-24T23:00:57.472Z,79.50
2022-11-24T23:03:23.973Z,79.80
2022-11-24T23:05:50.514Z,79.56
2022-11-24T23:08:16.935Z,78.82
2022-11-24T23:10:43.380Z,78.80
2022-11-24T23:13:09.810Z,78.08
2022-11-24T23:15:36.217Z,77.58
2022-11-24T23:18:02.633Z,77.99
2022-11-24T23:20:29.106Z,77.39
2022-11-24T23:22:56.823Z,77.10
2022-11-24T23:25:23.341Z,77.04
2022-11-24T23:27:49.776Z,77.48
2022-11-24T23:30:16.283Z,77.50
2022-11-24T23:32:42.712Z,77.10
2022-11-24T23:35:13.605Z,77.10
2022-11-24T23:38:06.009Z,77.40
2022-11-24T23:40:28.197Z,77.38
2022-11-24T23:42:54.606Z,77.64
2022-11-24T23:45:21.026Z,77.68
2022-11-24T23:47:47.436Z,77.72
2022-11-24T23:50:13.901Z,78.24
2022-11-24T23:52:40.342Z,78.09
2022-11-24T23:55:07.193Z,78.23
2022-11-24T23:57:33.594Z,78.30
